Back to top

Cody, WY weather

Yellowstone Regional Airport (AWOS), Cody, WY: 11/13/2019 17:56
Visibility10 statute milessun with broken clouds
View 7-Day Forecast
Area Summary
Sky/CloudsBroken at 9500ft
Weather [last 24 hours]None
Pressure30.14 in.Hg (1021 hPa)
Dew Point28 °F (-2.2 °C)
Relative Humidity72.6 %
Temperature36 °F (2.2 °C)red thermometer
Wind Chill33.3 °F (0.716 °C)
Reading TimeMinimum to Maximum Temperature
6-hr ending 11/13@16:5639 °F to 48 °F (3.9 °C to 8.9 °C)
6-hr ending 11/13@10:5630 °F to 43 °F (-1.1 °C to 6.1 °C)
6-hr ending 11/13@04:5635.1 °F to 44.1 °F (1.7 °C to 6.7 °C)
6-hr ending 11/12@22:5637.9 °F to 52 °F (3.3 °C to 11.1 °C)
24-hr ending 11/12@23:567 °F to 53.1 °F (-13.9 °C to 11.7 °C)
Wind3.45 MPH (3 KT) green arrow pointing 225 degrees
Wind FromSouthwest (220 Degrees)
Rolling 24-hr Peak Wind29.9 MPH (26 KT) on 11/12@18:48
Rolling 24-hr Peak Wind FromWest (280 Degrees)
Twilight Begins06:38Sunshine Yesterday
Sunrise07:09N/A
Sunset16:51
Twilight Ends17:23
RemarksFZRANO
METARKCOD 140056Z AUTO 22003KT 10SM BKN095 02/M02 A3014 RMK AO2 SLP228 T00221022 FZRANO
Tags: